Time;durP1;ratioP1;P1;durP2;ratioP2;P2;SDS_P1;SDS_P2;PMS_P1;PMS_P2;Temp;Humidity;BMP_temperature;BMP_pressure;BME280_temperature;BME280_humidity;BME280_pressure;Samples;Min_cycle;Max_cycle;Signal;HPM_P1;HPM_P2
2022/04/22 00:00:38;;;;;;;30.90;27.92;;;;;;;7.95;100.00;99503.41;10236581;29;20051;-82
2022/04/22 00:05:39;;;;;;;28.85;26.27;;;;;;;7.94;100.00;99504.34;10220387;29;20056;-79
2022/04/22 00:11:29;;;;;;;29.15;26.30;;;;;;;7.89;100.00;99498.38;10234439;29;20055;-79
2022/04/22 00:16:04;;;;;;;29.05;26.38;;;;;;;8.02;100.00;99487.50;10232636;29;20048;-79
2022/04/22 00:21:07;;;;;;;28.85;25.85;;;;;;;7.99;100.00;99481.50;10236441;29;20047;-79
2022/04/22 00:26:08;;;;;;;28.77;26.42;;;;;;;8.04;100.00;99482.22;10234207;29;20079;-80
2022/04/22 00:31:10;;;;;;;30.60;28.08;;;;;;;8.20;100.00;99473.00;10232457;29;20135;-81
2022/04/22 00:36:12;;;;;;;27.85;25.55;;;;;;;8.01;100.00;99469.19;10240870;29;20043;-79
2022/04/22 00:41:14;;;;;;;32.08;28.85;;;;;;;7.94;100.00;99471.16;10257407;29;20047;-79
2022/04/22 00:46:16;;;;;;;35.00;31.38;;;;;;;8.42;99.26;99456.63;10246217;29;20414;-80
2022/04/22 00:51:21;;;;;;;34.83;31.55;;;;;;;8.31;98.50;99454.31;10240072;29;20043;-80
2022/04/22 00:56:23;;;;;;;34.58;31.17;;;;;;;8.15;99.59;99455.72;10240891;29;20047;-80
2022/04/22 01:01:25;;;;;;;35.20;31.13;;;;;;;8.01;100.00;99454.38;10225409;29;20044;-81
2022/04/22 01:11:50;;;;;;;41.15;33.42;;;;;;;8.27;96.96;99443.06;10247800;29;20095;-81
2022/04/22 01:16:51;;;;;;;37.47;33.28;;;;;;;8.25;95.88;99441.44;10247562;29;20044;-80
2022/04/22 01:21:53;;;;;;;42.63;34.50;;;;;;;8.12;95.61;99433.09;10247851;29;20076;-80
2022/04/22 01:26:56;;;;;;;39.05;34.80;;;;;;;8.08;95.76;99424.47;10245678;29;20080;-80
2022/04/22 01:32:00;;;;;;;43.05;35.63;;;;;;;8.05;95.97;99431.56;10247080;29;20054;-79
2022/04/22 01:37:02;;;;;;;43.75;35.90;;;;;;;8.11;95.42;99438.38;10264200;28;20060;-79
2022/04/22 01:42:05;;;;;;;50.22;37.28;;;;;;;7.72;96.96;99434.31;10264145;28;20032;-81
2022/04/22 01:47:06;;;;;;;41.35;36.58;;;;;;;7.96;95.00;99434.47;10252121;29;20040;-78
2022/04/22 01:52:08;;;;;;;49.80;36.47;;;;;;;7.92;94.51;99433.69;10240040;29;20046;-77
2022/04/22 01:57:10;;;;;;;40.60;35.50;;;;;;;7.95;94.53;99425.75;10237000;29;20066;-78
2022/04/22 02:02:12;;;;;;;56.55;38.88;;;;;;;7.71;95.50;99426.53;10225963;29;20047;-78
2022/04/22 02:07:14;;;;;;;55.15;39.38;;;;;;;7.62;96.38;99422.41;10243207;29;20075;-78
2022/04/22 02:12:16;;;;;;;55.13;38.72;;;;;;;7.62;95.80;99418.94;10237272;29;20050;-78
2022/04/22 02:17:18;;;;;;;58.78;39.30;;;;;;;7.56;95.61;99419.97;10235715;29;20054;-78
2022/04/22 02:22:22;;;;;;;51.25;37.80;;;;;;;7.49;95.70;99416.69;10237470;29;20058;-79
2022/04/22 02:32:44;;;;;;;63.75;41.67;;;;;;;7.23;96.46;99419.19;10238695;29;20046;-77
2022/04/22 02:37:47;;;;;;;62.42;42.15;;;;;;;7.08;97.22;99413.50;10238660;29;20052;-78
2022/04/22 02:48:25;;;;;;;58.67;40.65;;;;;;;7.14;98.17;99402.00;10197020;29;20087;-78
2022/04/22 02:53:27;;;;;;;53.65;38.60;;;;;;;7.22;96.12;99405.25;10243723;29;20051;-78
2022/04/22 02:58:28;;;;;;;58.13;40.50;;;;;;;7.16;96.82;99400.19;10240571;29;20079;-78
2022/04/22 03:03:32;;;;;;;58.63;41.67;;;;;;;7.17;97.57;99393.19;10239790;29;20043;-78
2022/04/22 03:08:34;;;;;;;55.55;40.10;;;;;;;7.36;95.64;99383.94;10240124;29;20079;-78
2022/04/22 03:13:39;;;;;;;61.78;41.53;;;;;;;7.18;96.68;99380.09;10237543;29;20056;-77
2022/04/22 03:18:41;;;;;;;56.80;40.60;;;;;;;7.01;96.60;99372.72;10241527;29;20051;-78
2022/04/22 03:23:43;;;;;;;57.45;40.80;;;;;;;6.80;98.40;99363.72;10242492;29;20044;-78
2022/04/22 03:28:46;;;;;;;54.00;38.85;;;;;;;6.63;98.58;99368.53;10242931;29;20043;-77
2022/04/22 03:33:48;;;;;;;54.10;40.25;;;;;;;6.37;100.00;99368.34;10245959;29;20055;-78
2022/04/22 03:38:49;;;;;;;55.97;39.53;;;;;;;6.24;100.00;99368.69;10244018;29;20039;-78
2022/04/22 03:43:51;;;;;;;59.28;40.33;;;;;;;6.12;100.00;99365.50;10238712;29;20087;-78
2022/04/22 03:48:55;;;;;;;57.17;40.30;;;;;;;6.05;100.00;99357.81;10239042;29;20051;-79
2022/04/22 03:53:57;;;;;;;55.97;39.78;;;;;;;5.97;100.00;99358.88;10246048;29;20063;-78
2022/04/22 03:58:59;;;;;;;56.30;38.90;;;;;;;5.81;100.00;99368.81;10241948;29;20047;-78
2022/04/22 04:04:01;;;;;;;58.90;39.72;;;;;;;5.81;100.00;99364.44;10238919;29;20056;-77
2022/04/22 04:25:04;;;;;;;62.80;41.20;;;;;;;5.86;100.00;99358.28;10265397;28;20055;-77
2022/04/22 04:30:07;;;;;;;60.70;41.42;;;;;;;5.69;99.99;99358.66;10246213;29;20406;-79
2022/04/22 04:35:09;;;;;;;58.92;41.00;;;;;;;5.51;100.00;99358.16;10241005;29;20063;-78
2022/04/22 04:40:11;;;;;;;66.85;43.47;;;;;;;5.38;100.00;99353.25;10247279;29;20059;-78
2022/04/22 04:45:12;;;;;;;70.55;43.85;;;;;;;5.31;100.00;99349.91;10244200;29;20060;-78
2022/04/22 04:50:15;;;;;;;62.60;40.88;;;;;;;5.34;100.00;99349.84;10265250;28;20044;-78
2022/04/22 04:55:16;;;;;;;61.33;40.72;;;;;;;5.64;100.00;99350.09;10251978;29;20044;-77
2022/04/22 05:00:18;;;;;;;69.75;44.22;;;;;;;5.95;100.00;99345.03;10236206;29;20051;-78
2022/04/22 05:05:20;;;;;;;61.08;40.70;;;;;;;6.06;100.00;99343.00;10235538;29;20047;-77
2022/04/22 05:10:23;;;;;;;62.38;41.65;;;;;;;6.11;100.00;99340.28;10235604;29;20118;-77
2022/04/22 05:15:26;;;;;;;52.85;40.33;;;;;;;6.27;100.00;99341.63;10236774;29;20052;-78
2022/04/22 05:20:29;;;;;;;58.33;41.35;;;;;;;6.45;100.00;99335.94;10234387;29;20051;-77
2022/04/22 05:25:31;;;;;;;68.30;44.60;;;;;;;6.67;99.60;99343.19;10244197;29;20059;-77
2022/04/22 05:35:53;;;;;;;52.25;38.40;;;;;;;6.76;96.86;99348.16;10238077;29;20050;-77
2022/04/22 05:40:55;;;;;;;51.97;38.20;;;;;;;6.85;95.92;99360.13;10240869;29;20087;-78
2022/04/22 05:45:56;;;;;;;38.70;34.22;;;;;;;6.85;95.57;99352.28;10249354;29;20055;-78
2022/04/22 05:50:58;;;;;;;54.83;34.88;;;;;;;6.75;95.97;99344.72;10254776;29;20051;-79
2022/04/22 05:56:00;;;;;;;35.90;31.83;;;;;;;7.05;93.53;99334.31;10242184;29;20138;-76
2022/04/22 06:01:01;;;;;;;50.10;33.22;;;;;;;7.27;93.05;99338.00;10238744;29;20099;-78
2022/04/22 06:06:03;;;;;;;40.45;34.35;;;;;;;7.34;92.33;99333.44;10236500;29;20044;-77
2022/04/22 06:11:05;;;;;;;35.13;31.42;;;;;;;7.67;90.25;99334.19;10233016;29;20414;-78
2022/04/22 06:16:07;;;;;;;42.25;32.83;;;;;;;7.83;87.26;99331.94;10232184;29;20051;-78
2022/04/22 06:21:08;;;;;;;49.40;35.22;;;;;;;7.59;89.82;99323.09;10251837;29;20043;-78
2022/04/22 06:26:10;;;;;;;47.65;35.20;;;;;;;7.47;91.01;99328.72;10265288;29;20047;-79
2022/04/22 06:31:11;;;;;;;46.33;34.85;;;;;;;7.49;91.77;99319.06;10256440;29;20072;-80
2022/04/22 06:36:14;;;;;;;44.38;33.08;;;;;;;7.81;88.98;99315.44;10251923;29;20378;-79
2022/04/22 06:46:36;;;;;;;44.78;34.40;;;;;;;7.54;89.76;99314.56;10236290;29;20067;-79
2022/04/22 06:51:38;;;;;;;41.40;33.63;;;;;;;8.08;88.46;99311.91;10230299;29;20048;-81
2022/04/22 06:56:40;;;;;;;39.50;33.17;;;;;;;8.59;85.87;99299.78;10232376;29;20477;-79
2022/04/22 07:01:42;;;;;;;36.58;32.63;;;;;;;9.12;81.54;99301.31;10230689;29;20044;-79
2022/04/22 07:06:45;;;;;;;41.63;33.47;;;;;;;9.18;79.85;99307.19;10223614;29;20103;-79
2022/04/22 07:11:51;;;;;;;46.28;36.65;;;;;;;8.61;82.75;99304.94;10226669;29;20094;-78
2022/04/22 07:16:52;;;;;;;47.47;35.60;;;;;;;8.38;84.62;99308.38;10226087;29;20095;-78
2022/04/22 07:21:54;;;;;;;41.47;35.67;;;;;;;8.63;82.66;99309.19;10225700;29;20075;-78
2022/04/22 07:26:57;;;;;;;47.13;35.80;;;;;;;8.39;84.46;99310.94;10224053;29;20051;-78
2022/04/22 07:31:59;;;;;;;44.92;34.40;;;;;;;8.77;82.56;99311.34;10219340;29;20083;-77
2022/04/22 07:37:01;;;;;;;43.38;34.15;;;;;;;9.22;79.71;99298.31;10222875;29;20103;-77
2022/04/22 07:42:03;;;;;;;47.70;34.90;;;;;;;9.38;81.67;99300.34;10223128;29;20051;-80
2022/04/22 07:47:12;;;;;;;44.92;33.80;;;;;;;10.04;79.66;99295.94;10261956;23;20036;-85
2022/04/22 07:52:14;;;;;;;38.17;34.08;;;;;;;10.51;75.81;99283.44;10243565;29;20071;-85
2022/04/22 07:57:16;;;;;;;36.45;31.75;;;;;;;11.11;72.54;99278.13;10236291;23;20091;-70
2022/04/22 08:02:17;;;;;;;39.38;32.92;;;;;;;11.34;71.42;99269.19;10218100;29;20116;-70
2022/04/22 08:07:19;;;;;;;35.00;31.25;;;;;;;11.70;68.70;99269.22;10219603;29;20111;-71
2022/04/22 08:12:24;;;;;;;34.53;31.15;;;;;;;11.83;71.41;99265.09;10219608;29;20043;-72
2022/04/22 08:17:37;;;;;;;36.78;33.15;;;;;;;12.19;70.40;99253.66;10233524;29;20111;-71
2022/04/22 08:22:39;;;;;;;34.42;30.90;;;;;;;12.21;69.22;99254.41;10201044;29;20047;-72
2022/04/22 08:27:41;;;;;;;35.13;31.60;;;;;;;12.32;66.25;99253.88;10192681;29;20051;-70
2022/04/22 08:32:43;;;;;;;31.92;28.90;;;;;;;12.90;63.64;99247.31;10216566;29;20047;-70
2022/04/22 08:37:45;;;;;;;29.27;26.55;;;;;;;13.26;62.71;99244.50;10216129;29;20047;-70
2022/04/22 08:42:47;;;;;;;31.33;28.35;;;;;;;13.20;65.80;99250.09;10215112;29;20044;-70
2022/04/22 08:53:11;;;;;;;31.48;28.60;;;;;;;14.29;62.17;99242.09;10214119;29;20099;-71
2022/04/22 08:58:13;;;;;;;27.73;25.70;;;;;;;14.35;58.65;99225.88;10216215;29;20092;-70
2022/04/22 09:03:15;;;;;;;26.70;24.65;;;;;;;14.45;59.11;99220.88;10215991;29;20047;-70
2022/04/22 09:08:18;;;;;;;27.73;25.35;;;;;;;14.71;57.93;99216.69;10213814;29;20054;-70
2022/04/22 09:13:29;;;;;;;28.20;26.02;;;;;;;14.75;59.14;99199.66;10176635;29;20044;-70
2022/04/22 09:18:35;;;;;;;26.25;24.13;;;;;;;14.88;56.97;99195.31;10180773;29;20092;-71
2022/04/22 09:23:37;;;;;;;25.67;23.67;;;;;;;15.52;56.87;99191.16;10180276;29;20047;-70
2022/04/22 09:28:39;;;;;;;25.55;23.63;;;;;;;15.62;55.75;99171.06;10178034;29;20075;-70
2022/04/22 09:33:46;;;;;;;24.38;22.55;;;;;;;15.72;55.03;99159.91;10177346;29;20517;-70
2022/04/22 09:44:15;;;;;;;21.30;19.85;;;;;;;15.89;56.06;99152.53;10176818;29;20047;-70
2022/04/22 09:49:40;;;;;;;23.20;21.60;;;;;;;16.74;54.50;99139.59;10189024;29;20056;-70
2022/04/22 09:54:55;;;;;;;24.48;22.88;;;;;;;16.73;52.08;99131.72;10189274;29;20068;-70
2022/04/22 10:00:08;;;;;;;20.85;19.45;;;;;;;17.17;50.10;99128.50;10189383;29;20052;-70
2022/04/22 10:05:11;;;;;;;19.50;18.20;;;;;;;16.76;52.43;99128.84;10190022;29;20105;-71
2022/04/22 10:10:14;;;;;;;19.35;17.80;;;;;;;16.96;50.32;99120.31;10189810;29;20052;-70
2022/04/22 10:15:19;;;;;;;23.15;21.65;;;;;;;17.23;49.46;99112.13;10189231;29;20044;-71
2022/04/22 10:20:22;;;;;;;21.10;19.50;;;;;;;16.82;50.83;99105.38;10186306;29;20063;-71
2022/04/22 10:25:27;;;;;;;17.40;16.15;;;;;;;17.15;47.78;99106.53;10187537;29;20100;-70
2022/04/22 10:30:29;;;;;;;19.92;18.40;;;;;;;17.52;51.45;99095.81;10187604;29;20048;-70
2022/04/22 10:35:43;;;;;;;19.90;18.50;;;;;;;17.43;48.73;99100.00;10187614;29;20075;-71
2022/04/22 10:40:48;;;;;;;23.83;22.13;;;;;;;17.29;50.58;99094.88;10176762;29;20056;-70
2022/04/22 10:51:10;;;;;;;18.85;17.65;;;;;;;18.10;46.25;99091.38;10187465;29;20047;-70
2022/04/22 10:56:30;;;;;;;20.05;18.15;;;;;;;17.68;48.62;99077.75;10186878;29;20088;-69
2022/04/22 11:01:32;;;;;;;18.08;16.85;;;;;;;17.49;48.16;99094.25;10179932;29;20052;-70
2022/04/22 11:06:43;;;;;;;20.33;18.98;;;;;;;16.76;50.29;99089.88;10181057;29;20108;-72
2022/04/22 11:11:49;;;;;;;19.77;18.48;;;;;;;16.45;49.69;99088.56;10165909;29;20044;-71
2022/04/22 11:16:52;;;;;;;21.55;20.05;;;;;;;16.00;52.53;99087.31;10180451;29;20063;-71
2022/04/22 11:21:58;;;;;;;20.88;19.50;;;;;;;15.78;53.57;99074.69;10179898;29;20052;-71
2022/04/22 11:27:13;;;;;;;20.57;19.17;;;;;;;15.50;55.99;99075.69;10180101;29;20059;-69
2022/04/22 11:32:20;;;;;;;19.55;18.25;;;;;;;15.44;54.27;99084.03;10179725;29;20486;-70
2022/04/22 11:37:22;;;;;;;20.40;19.00;;;;;;;15.11;55.14;99091.47;10180778;29;20048;-69
2022/04/22 11:42:25;;;;;;;20.73;19.33;;;;;;;14.74;56.41;99094.78;10179388;29;20079;-70
2022/04/22 11:47:28;;;;;;;20.48;18.95;;;;;;;14.93;58.05;99090.03;10179456;29;20044;-70
2022/04/22 11:52:30;;;;;;;18.40;17.20;;;;;;;15.01;57.11;99094.81;10179044;29;20454;-70
2022/04/22 11:57:38;;;;;;;18.60;17.25;;;;;;;14.99;56.41;99094.06;10177676;29;20498;-70
2022/04/22 12:08:13;;;;;;;17.17;16.00;;;;;;;14.26;57.43;99102.19;10178411;29;20127;-70
2022/04/22 12:13:16;;;;;;;16.58;15.20;;;;;;;14.53;58.52;99095.22;10178403;29;20048;-70
2022/04/22 12:18:26;;;;;;;16.73;15.23;;;;;;;14.58;58.36;99090.47;10178378;29;20079;-70
2022/04/22 12:23:34;;;;;;;16.45;15.00;;;;;;;14.28;58.58;99093.19;10177607;29;20040;-69
2022/04/22 12:28:35;;;;;;;16.45;15.30;;;;;;;14.32;58.54;99088.56;10176492;29;20056;-70
2022/04/22 12:33:37;;;;;;;15.65;14.60;;;;;;;14.37;59.16;99089.13;10177644;29;20048;-70
2022/04/22 12:38:39;;;;;;;14.68;13.68;;;;;;;14.21;58.71;99083.09;10177824;29;20131;-69
2022/04/22 12:43:46;;;;;;;15.70;14.50;;;;;;;14.31;59.18;99077.16;10177295;29;20055;-70
2022/04/22 12:54:13;;;;;;;13.35;12.38;;;;;;;14.32;58.20;99070.06;10176508;29;20447;-70
2022/04/22 12:59:14;;;;;;;12.77;11.77;;;;;;;14.24;58.09;99067.91;10176630;29;20052;-70
2022/04/22 13:04:23;;;;;;;13.30;12.20;;;;;;;14.11;58.41;99074.88;10176868;29;20443;-70
2022/04/22 13:09:25;;;;;;;12.35;11.45;;;;;;;13.98;58.02;99081.88;10175126;29;20117;-69
2022/04/22 13:14:26;;;;;;;14.65;13.25;;;;;;;13.94;57.88;99075.91;10176882;29;20498;-69
2022/04/22 13:19:28;;;;;;;16.45;15.25;;;;;;;13.94;58.59;99070.63;10177313;29;20071;-70
2022/04/22 13:24:29;;;;;;;15.43;14.27;;;;;;;14.17;57.96;99081.63;10176887;29;20103;-70
2022/04/22 13:29:31;;;;;;;15.65;14.50;;;;;;;14.39;57.16;99076.69;10176954;29;20096;-70
2022/04/22 13:34:33;;;;;;;17.63;16.23;;;;;;;14.39;56.79;99082.81;10177249;29;20048;-69
2022/04/22 13:39:35;;;;;;;15.90;14.82;;;;;;;14.24;57.60;99077.63;10176429;29;20051;-70
2022/04/22 13:55:17;;;;;;;19.83;18.52;;;;;;;13.82;58.59;99101.28;10219051;29;20043;-73
2022/04/22 14:00:19;;;;;;;21.50;20.00;;;;;;;13.60;60.20;99112.28;10215172;29;20052;-72
2022/04/22 14:05:21;;;;;;;22.33;20.50;;;;;;;13.62;59.66;99112.19;10217813;29;20040;-75
2022/04/22 14:10:23;;;;;;;22.42;20.90;;;;;;;13.52;60.38;99111.03;10217278;29;20417;-75
2022/04/22 14:15:25;;;;;;;25.58;23.50;;;;;;;13.37;61.15;99115.44;10218006;29;20044;-76
2022/04/22 14:20:26;;;;;;;29.23;26.45;;;;;;;13.24;61.67;99110.00;10219004;29;20048;-76
2022/04/22 14:25:28;;;;;;;28.42;26.08;;;;;;;13.15;62.58;99118.41;10216288;29;20054;-76
2022/04/22 14:30:30;;;;;;;28.98;26.45;;;;;;;13.24;62.53;99117.06;10216377;29;20063;-75
2022/04/22 14:35:31;;;;;;;29.35;27.15;;;;;;;13.18;63.04;99127.91;10221585;29;20051;-74
2022/04/22 14:40:33;;;;;;;30.98;27.90;;;;;;;13.40;62.99;99124.94;10224614;29;20061;-71
2022/04/22 14:45:36;;;;;;;30.88;28.27;;;;;;;13.33;62.90;99121.81;10205011;29;20048;-71
2022/04/22 14:50:38;;;;;;;31.95;29.23;;;;;;;13.27;63.38;99122.16;10222552;29;20425;-71
2022/04/22 14:55:39;;;;;;;33.72;30.77;;;;;;;13.48;62.82;99122.72;10223780;29;20482;-74
2022/04/22 15:00:41;;;;;;;32.17;29.30;;;;;;;13.50;62.13;99126.97;10224021;29;20040;-73
2022/04/22 15:05:43;;;;;;;32.15;29.15;;;;;;;13.42;62.35;99129.19;10223300;29;20490;-73
2022/04/22 15:10:45;;;;;;;32.30;29.48;;;;;;;13.44;62.43;99124.66;10223686;29;20058;-72
2022/04/22 15:15:47;;;;;;;29.75;26.98;;;;;;;13.60;62.42;99122.00;10222498;29;20132;-72
2022/04/22 15:26:10;;;;;;;28.45;26.35;;;;;;;13.52;61.51;99130.38;10223721;29;20051;-73
2022/04/22 15:31:13;;;;;;;29.48;27.20;;;;;;;13.57;61.00;99125.66;10222648;29;20044;-72
2022/04/22 15:36:16;;;;;;;30.52;27.75;;;;;;;13.54;60.87;99125.81;10222786;29;20039;-73
2022/04/22 15:41:22;;;;;;;27.45;25.02;;;;;;;13.51;61.00;99133.94;10222515;29;20138;-72
2022/04/22 15:46:24;;;;;;;27.02;24.38;;;;;;;13.49;60.63;99134.97;10223211;29;20040;-72
2022/04/22 15:51:27;;;;;;;25.38;23.02;;;;;;;13.40;60.82;99138.97;10223637;29;20048;-72
2022/04/22 15:56:33;;;;;;;23.70;22.00;;;;;;;13.40;60.87;99131.06;10222172;29;20413;-73
2022/04/22 16:01:36;;;;;;;22.50;20.90;;;;;;;13.33;60.23;99127.09;10221825;29;20084;-72
2022/04/22 16:06:44;;;;;;;21.40;19.45;;;;;;;13.41;60.01;99134.56;10221717;29;20040;-72
2022/04/22 16:17:07;;;;;;;19.38;17.98;;;;;;;13.42;59.55;99142.41;10221486;29;20093;-72
2022/04/22 16:22:09;;;;;;;18.63;17.27;;;;;;;13.27;59.64;99141.47;10223864;29;20054;-72
2022/04/22 16:27:10;;;;;;;17.38;16.05;;;;;;;13.45;59.30;99144.00;10222168;29;20067;-73
2022/04/22 16:32:12;;;;;;;16.23;14.93;;;;;;;13.39;60.38;99147.84;10223914;29;20044;-73
2022/04/22 16:37:13;;;;;;;15.30;14.20;;;;;;;13.20;60.24;99144.53;10222164;29;20047;-73
2022/04/22 16:42:15;;;;;;;15.82;14.02;;;;;;;13.14;60.71;99153.63;10220714;29;20060;-74
2022/04/22 16:47:17;;;;;;;14.57;13.57;;;;;;;13.08;60.27;99160.09;10221925;29;20055;-74
2022/04/22 16:52:24;;;;;;;15.40;14.20;;;;;;;13.06;60.12;99158.50;10223327;29;20046;-72
2022/04/22 16:57:29;;;;;;;16.33;15.13;;;;;;;12.94;59.67;99164.47;10220011;29;20054;-72
2022/04/22 17:02:33;;;;;;;16.13;15.02;;;;;;;12.86;59.66;99160.44;10205213;29;20135;-72
2022/04/22 17:07:36;;;;;;;17.92;16.63;;;;;;;12.97;60.09;99172.19;10215666;29;20056;-73
2022/04/22 17:12:38;;;;;;;16.98;15.77;;;;;;;12.92;60.57;99176.88;10219381;29;20059;-73
2022/04/22 17:23:00;;;;;;;19.27;17.50;;;;;;;12.73;61.08;99180.50;10224829;29;20043;-72
2022/04/22 17:28:03;;;;;;;17.45;16.25;;;;;;;12.67;61.75;99183.50;10221571;29;20509;-70
2022/04/22 17:33:06;;;;;;;17.15;15.95;;;;;;;12.68;61.14;99182.53;10220317;29;20047;-72
2022/04/22 17:38:08;;;;;;;19.48;17.98;;;;;;;12.57;61.59;99191.03;10222389;29;20127;-71
2022/04/22 17:43:10;;;;;;;18.20;16.85;;;;;;;12.49;62.38;99198.50;10218877;29;20052;-72
2022/04/22 17:48:12;;;;;;;18.52;17.10;;;;;;;12.61;62.29;99203.09;10220732;29;20058;-72
2022/04/22 17:53:13;;;;;;;17.17;15.95;;;;;;;12.47;63.42;99215.31;10221182;29;20036;-72
2022/04/22 17:58:21;;;;;;;15.73;14.65;;;;;;;12.21;64.97;99221.94;10206177;29;20052;-72
2022/04/22 18:03:23;;;;;;;16.02;14.82;;;;;;;12.09;66.29;99223.44;10220758;29;20040;-73
2022/04/22 18:08:28;;;;;;;15.68;14.60;;;;;;;12.01;67.01;99225.59;10224801;29;20122;-72
2022/04/22 18:13:29;;;;;;;15.23;14.13;;;;;;;12.01;67.48;99233.50;10229096;29;20135;-72
2022/04/22 18:18:31;;;;;;;15.10;14.10;;;;;;;11.79;68.38;99247.69;10230293;29;20055;-73
2022/04/22 18:23:33;;;;;;;16.40;15.18;;;;;;;11.73;68.96;99244.50;10228379;29;20091;-71
2022/04/22 18:28:37;;;;;;;17.77;16.42;;;;;;;11.56;69.67;99255.88;10226667;29;20040;-72
2022/04/22 18:33:40;;;;;;;18.50;16.77;;;;;;;11.36;70.78;99262.06;10226229;29;20067;-72
2022/04/22 18:38:42;;;;;;;19.13;17.80;;;;;;;11.39;70.66;99258.47;10226970;29;20051;-71
2022/04/22 18:43:44;;;;;;;20.10;18.70;;;;;;;11.25;71.23;99269.63;10225628;29;20059;-71
2022/04/22 18:48:45;;;;;;;20.73;19.23;;;;;;;11.35;71.01;99265.63;10228080;29;20127;-71
2022/04/22 18:53:47;;;;;;;20.73;19.33;;;;;;;11.29;71.35;99266.78;10224189;29;20051;-71
2022/04/22 18:58:49;;;;;;;22.88;21.10;;;;;;;11.29;71.47;99266.78;10225809;29;20048;-72
2022/04/22 19:03:51;;;;;;;23.70;22.10;;;;;;;11.18;71.33;99276.94;10227706;29;20043;-71
2022/04/22 19:08:52;;;;;;;23.75;21.83;;;;;;;11.08;72.21;99276.53;10226025;29;20134;-71
2022/04/22 19:13:54;;;;;;;24.05;22.20;;;;;;;10.96;72.41;99273.59;10224562;29;20054;-71
2022/04/22 19:18:55;;;;;;;24.77;23.27;;;;;;;10.88;72.61;99284.44;10221672;29;20047;-70
2022/04/22 19:23:57;;;;;;;24.67;23.08;;;;;;;10.84;73.10;99280.25;10225026;29;20470;-72
2022/04/22 19:28:59;;;;;;;24.77;23.17;;;;;;;10.81;73.42;99281.25;10224462;29;20059;-72
2022/04/22 19:34:01;;;;;;;23.77;22.27;;;;;;;10.74;73.65;99284.22;10224516;29;20044;-72
2022/04/22 19:44:23;;;;;;;25.20;23.40;;;;;;;10.57;74.66;99285.81;10225374;29;20127;-71
2022/04/22 19:49:25;;;;;;;25.75;23.95;;;;;;;10.64;74.26;99289.03;10214548;23;20519;-73
2022/04/22 19:54:26;;;;;;;28.45;26.17;;;;;;;10.56;74.13;99293.75;10219882;29;20048;-73
2022/04/22 19:59:28;;;;;;;26.85;24.85;;;;;;;10.52;74.31;99290.41;10219572;29;20103;-72
2022/04/22 20:04:29;;;;;;;29.77;27.08;;;;;;;10.44;74.53;99297.75;10220140;29;20048;-73
2022/04/22 20:09:31;;;;;;;30.10;27.80;;;;;;;10.46;74.51;99295.94;10221524;29;20071;-72
2022/04/22 20:14:33;;;;;;;31.55;28.75;;;;;;;10.43;74.50;99303.09;10220876;29;20557;-73
2022/04/22 20:19:35;;;;;;;30.73;28.40;;;;;;;10.34;74.78;99307.81;10220450;29;20061;-73
2022/04/22 20:24:39;;;;;;;31.38;28.95;;;;;;;10.23;75.51;99306.56;10219153;29;20123;-73
2022/04/22 20:29:41;;;;;;;30.98;28.33;;;;;;;10.38;74.85;99307.69;10218514;29;20439;-72
2022/04/22 20:45:24;;;;;;;32.20;29.58;;;;;;;10.19;74.84;99311.06;10251215;29;20047;-72
2022/04/22 20:50:27;;;;;;;30.05;27.60;;;;;;;10.11;75.35;99308.75;10258525;29;20418;-71
2022/04/22 20:55:28;;;;;;;29.17;27.08;;;;;;;10.30;74.42;99322.00;10257363;29;20613;-72
2022/04/22 21:00:30;;;;;;;28.38;26.38;;;;;;;10.30;74.14;99324.63;10248962;29;20047;-73
2022/04/22 21:05:31;;;;;;;27.90;25.77;;;;;;;10.30;73.62;99329.88;10233601;29;20040;-71
2022/04/22 21:10:33;;;;;;;26.38;24.67;;;;;;;10.19;73.92;99326.81;10241101;29;20086;-72
2022/04/22 21:15:35;;;;;;;26.23;24.42;;;;;;;10.09;74.17;99328.97;10257250;29;20497;-72
2022/04/22 21:20:38;;;;;;;25.63;23.77;;;;;;;9.97;74.45;99328.63;10198864;29;20476;-73
2022/04/22 21:25:39;;;;;;;25.48;23.38;;;;;;;10.07;74.06;99330.81;10216396;29;20047;-72
2022/04/22 21:30:46;;;;;;;25.17;23.58;;;;;;;10.10;73.62;99342.97;10215978;29;20502;-72
2022/04/22 21:35:47;;;;;;;23.30;21.80;;;;;;;10.14;73.40;99346.28;10215758;29;20063;-72
2022/04/22 21:40:49;;;;;;;24.45;22.83;;;;;;;9.95;73.76;99348.81;10217357;29;20466;-72
2022/04/22 21:45:52;;;;;;;23.20;21.70;;;;;;;10.04;73.37;99356.31;10218111;29;20055;-72
2022/04/22 21:50:55;;;;;;;21.73;20.30;;;;;;;10.04;73.32;99362.44;10217837;29;20107;-71
2022/04/22 21:55:56;;;;;;;22.45;20.95;;;;;;;9.90;73.76;99361.28;10216661;29;20048;-71
2022/04/22 22:00:59;;;;;;;20.25;18.95;;;;;;;9.78;73.85;99368.75;10216283;29;20154;-72
2022/04/22 22:06:04;;;;;;;19.67;17.90;;;;;;;9.76;73.36;99362.69;10218087;29;20067;-72
2022/04/22 22:11:06;;;;;;;18.65;17.30;;;;;;;9.86;72.69;99376.28;10200281;29;20115;-72
2022/04/22 22:16:14;;;;;;;17.95;16.75;;;;;;;9.93;72.50;99372.53;10216872;29;20079;-72
2022/04/22 22:21:16;;;;;;;16.58;15.27;;;;;;;9.84;72.18;99370.25;10217259;29;20047;-72
2022/04/22 22:26:18;;;;;;;17.08;15.93;;;;;;;9.68;72.96;99366.50;10217393;29;20050;-72
2022/04/22 22:31:19;;;;;;;16.35;15.25;;;;;;;9.76;71.87;99367.06;10216956;29;20047;-71
2022/04/22 22:36:21;;;;;;;15.50;14.40;;;;;;;9.74;72.28;99366.25;10215271;29;20051;-72
2022/04/22 22:41:23;;;;;;;15.90;14.80;;;;;;;9.66;71.83;99370.97;10215988;29;20525;-71
2022/04/22 22:46:25;;;;;;;15.85;14.75;;;;;;;9.62;72.04;99370.25;10215098;29;20047;-71
2022/04/22 22:51:26;;;;;;;14.82;13.82;;;;;;;9.44;72.66;99378.81;10216114;29;20123;-72
2022/04/22 22:56:28;;;;;;;13.73;12.63;;;;;;;9.56;71.46;99371.34;10223113;29;20131;-72
2022/04/22 23:01:30;;;;;;;13.93;13.02;;;;;;;9.43;72.09;99370.09;10221819;29;20059;-72
2022/04/22 23:06:31;;;;;;;14.93;13.85;;;;;;;9.24;72.50;99374.28;10222333;29;20046;-72
2022/04/22 23:11:33;;;;;;;12.90;12.05;;;;;;;9.32;72.04;99369.63;10221009;29;20050;-71
2022/04/22 23:16:37;;;;;;;12.43;11.63;;;;;;;9.24;71.66;99369.03;10221518;29;20108;-72
2022/04/22 23:21:40;;;;;;;13.02;12.00;;;;;;;9.01;72.46;99369.88;10221021;29;20405;-71
2022/04/22 23:26:42;;;;;;;13.27;12.38;;;;;;;9.11;71.43;99368.63;10221709;29;20068;-70
2022/04/22 23:31:43;;;;;;;12.73;11.82;;;;;;;9.08;71.11;99363.53;10219860;29;20055;-73
2022/04/22 23:36:45;;;;;;;12.25;11.45;;;;;;;8.88;71.87;99366.84;10221323;29;20040;-72
2022/04/22 23:41:47;;;;;;;13.00;12.02;;;;;;;8.78;72.45;99363.69;10220078;29;20039;-72
2022/04/22 23:46:49;;;;;;;11.98;11.00;;;;;;;8.51;73.06;99362.03;10220963;29;20054;-72
2022/04/22 23:51:51;;;;;;;12.77;11.88;;;;;;;8.44;73.17;99360.53;10220815;29;20054;-72
2022/04/22 23:56:52;;;;;;;13.30;12.40;;;;;;;8.42;72.80;99357.97;10221201;29;20135;-72
